createdAt,value
2019-06-28T00:01:14.248Z,6.83
2019-06-28T00:03:41.423Z,7.33
2019-06-28T00:06:08.679Z,8.03
2019-06-28T00:08:35.756Z,6.93
2019-06-28T00:11:02.839Z,7.83
2019-06-28T00:13:29.907Z,7.43
2019-06-28T00:15:56.963Z,7.83
2019-06-28T00:18:24.359Z,7.40
2019-06-28T00:20:51.420Z,7.20
2019-06-28T00:23:18.467Z,7.43
2019-06-28T00:25:46.645Z,7.77
2019-06-28T00:28:13.806Z,7.37
2019-06-28T00:30:40.952Z,7.90
2019-06-28T00:33:08.004Z,7.40
2019-06-28T00:35:35.059Z,7.53
2019-06-28T00:38:03.124Z,7.67
2019-06-28T00:40:35.265Z,7.30
2019-06-28T00:42:59.299Z,7.43
2019-06-28T00:45:26.419Z,7.40
2019-06-28T00:47:53.486Z,7.30
2019-06-28T00:50:21.539Z,7.73
2019-06-28T00:52:48.603Z,8.20
2019-06-28T00:55:15.764Z,7.77
2019-06-28T00:57:42.812Z,7.57
2019-06-28T01:00:10.204Z,7.80
2019-06-28T01:02:37.491Z,7.27
2019-06-28T01:05:04.667Z,7.47
2019-06-28T01:07:33.070Z,8.77
2019-06-28T01:10:00.243Z,8.43
2019-06-28T01:12:27.415Z,8.17
2019-06-28T01:14:54.499Z,8.40
2019-06-28T01:17:21.551Z,7.20
2019-06-28T01:19:48.609Z,8.23
2019-06-28T01:22:15.671Z,8.57
2019-06-28T01:24:42.727Z,7.80
2019-06-28T01:27:09.825Z,7.87
2019-06-28T01:29:36.960Z,8.10
2019-06-28T01:32:04.168Z,8.47
2019-06-28T01:34:31.247Z,8.00
2019-06-28T01:36:58.425Z,8.30
2019-06-28T01:39:25.505Z,8.23
2019-06-28T01:41:52.651Z,7.53
2019-06-28T01:44:20.716Z,8.20
2019-06-28T01:46:48.028Z,8.57
2019-06-28T01:49:15.195Z,8.43
2019-06-28T01:51:42.268Z,8.40
2019-06-28T01:54:10.340Z,8.20
2019-06-28T01:56:37.399Z,8.23
2019-06-28T01:59:04.580Z,8.70
2019-06-28T02:01:31.650Z,8.40
2019-06-28T02:03:58.729Z,8.30
2019-06-28T02:06:25.887Z,8.70
2019-06-28T02:08:52.944Z,8.33
2019-06-28T02:11:20.149Z,8.77
2019-06-28T02:13:47.296Z,8.30
2019-06-28T02:16:14.367Z,9.00
2019-06-28T02:18:41.431Z,8.67
2019-06-28T02:21:08.498Z,8.77
2019-06-28T02:23:35.564Z,8.90
2019-06-28T02:26:02.727Z,8.37
2019-06-28T02:28:29.787Z,8.80
2019-06-28T02:30:56.843Z,8.50
2019-06-28T02:33:23.937Z,9.63
2019-06-28T02:35:51.033Z,9.27
2019-06-28T02:38:18.099Z,9.20
2019-06-28T02:40:45.157Z,10.33
2019-06-28T02:43:12.230Z,9.83
2019-06-28T02:45:39.372Z,9.20
2019-06-28T02:48:06.457Z,9.27
2019-06-28T02:50:33.556Z,8.80
2019-06-28T02:53:00.671Z,9.23
2019-06-28T02:55:27.719Z,9.67
2019-06-28T02:57:54.784Z,10.00
2019-06-28T03:00:31.360Z,9.20
2019-06-28T03:02:58.440Z,9.57
2019-06-28T03:05:25.495Z,10.10
2019-06-28T03:07:52.888Z,10.03
2019-06-28T03:10:20.053Z,9.50
2019-06-28T03:12:47.125Z,9.67
2019-06-28T03:15:14.280Z,10.60
2019-06-28T03:17:41.360Z,10.23
2019-06-28T03:20:08.540Z,10.33
2019-06-28T03:22:35.599Z,10.10
2019-06-28T03:25:03.332Z,10.13
2019-06-28T03:27:30.401Z,10.93
2019-06-28T03:29:57.468Z,10.00
2019-06-28T03:32:24.672Z,10.70
2019-06-28T03:34:51.793Z,10.33
2019-06-28T03:37:18.845Z,11.23
2019-06-28T03:39:45.982Z,9.87
2019-06-28T03:42:13.088Z,10.37
2019-06-28T03:44:40.412Z,10.00
2019-06-28T03:47:07.561Z,10.90
2019-06-28T03:49:34.624Z,10.33
2019-06-28T03:52:01.696Z,11.30
2019-06-28T03:54:29.029Z,11.27
2019-06-28T03:56:56.080Z,10.80
2019-06-28T03:59:23.145Z,10.63
2019-06-28T04:01:50.426Z,10.17
2019-06-28T04:04:17.595Z,10.60
2019-06-28T04:06:44.655Z,9.60
2019-06-28T04:09:11.712Z,10.57
2019-06-28T04:11:38.780Z,10.10
2019-06-28T04:14:07.751Z,10.73
2019-06-28T04:16:36.724Z,10.97
2019-06-28T04:19:05.704Z,10.17
2019-06-28T04:21:34.649Z,11.60
2019-06-28T04:24:03.679Z,10.53
2019-06-28T04:26:32.663Z,10.87
2019-06-28T04:29:01.752Z,11.67
2019-06-28T04:31:30.828Z,11.40
2019-06-28T04:34:00.895Z,11.00
2019-06-28T04:36:29.856Z,9.97
2019-06-28T04:38:58.808Z,11.23
2019-06-28T04:41:27.876Z,10.83
2019-06-28T04:43:56.823Z,11.67
2019-06-28T04:46:26.016Z,11.37
2019-06-28T04:48:54.995Z,11.77
2019-06-28T04:51:23.952Z,12.13
2019-06-28T04:53:52.921Z,11.27
2019-06-28T04:56:23.114Z,10.77
2019-06-28T04:58:52.100Z,11.27
2019-06-28T05:01:21.251Z,12.37
2019-06-28T05:03:50.223Z,11.60
2019-06-28T05:06:19.172Z,11.17
2019-06-28T05:08:48.155Z,12.00
2019-06-28T05:11:17.121Z,11.63
2019-06-28T05:13:46.088Z,11.47
2019-06-28T05:16:15.043Z,11.23
2019-06-28T05:18:44.000Z,11.30
2019-06-28T05:21:13.083Z,11.13
2019-06-28T05:23:42.055Z,11.20
2019-06-28T05:26:11.011Z,10.83
2019-06-28T05:28:39.991Z,11.63
2019-06-28T05:31:08.983Z,10.57
2019-06-28T05:33:37.948Z,11.77
2019-06-28T05:36:07.042Z,11.30
2019-06-28T05:38:37.312Z,9.70
2019-06-28T05:41:06.370Z,10.97
2019-06-28T05:43:35.343Z,11.30
2019-06-28T05:46:04.740Z,12.40
2019-06-28T05:48:33.723Z,11.90
2019-06-28T05:51:02.798Z,11.87
2019-06-28T05:53:31.839Z,12.30
2019-06-28T05:56:00.925Z,12.47
2019-06-28T05:58:29.892Z,11.73
2019-06-28T06:00:58.860Z,12.30
2019-06-28T06:03:27.811Z,11.67
2019-06-28T06:05:56.808Z,11.83
2019-06-28T06:08:25.771Z,12.87
2019-06-28T06:10:54.728Z,13.30
2019-06-28T06:13:23.686Z,13.00
2019-06-28T06:15:52.756Z,12.40
2019-06-28T06:18:21.727Z,12.60
2019-06-28T06:20:50.709Z,12.20
2019-06-28T06:23:19.668Z,12.60
2019-06-28T06:25:48.728Z,13.20
2019-06-28T06:28:17.705Z,13.77
2019-06-28T06:30:46.693Z,13.93
2019-06-28T06:33:15.648Z,13.03
2019-06-28T06:35:44.712Z,12.93
2019-06-28T06:38:14.025Z,13.20
2019-06-28T06:40:42.977Z,13.90
2019-06-28T06:43:11.955Z,11.37
2019-06-28T06:45:40.908Z,12.97
2019-06-28T06:48:09.981Z,14.03
2019-06-28T06:50:39.008Z,14.57
2019-06-28T06:53:08.084Z,14.23
2019-06-28T06:55:37.152Z,13.33
2019-06-28T06:58:06.103Z,13.70
2019-06-28T07:00:35.634Z,12.80
2019-06-28T07:03:04.764Z,12.83
2019-06-28T07:05:33.750Z,13.00
2019-06-28T07:08:04.740Z,13.03
2019-06-28T07:10:34.263Z,13.80
2019-06-28T07:13:03.351Z,13.83
2019-06-28T07:15:43.887Z,12.80
2019-06-28T07:18:03.289Z,14.43
2019-06-28T07:20:32.268Z,12.40
2019-06-28T07:23:02.952Z,12.23
2019-06-28T07:25:32.178Z,13.27
2019-06-28T07:28:01.258Z,13.43
2019-06-28T07:30:30.433Z,13.17
2019-06-28T07:32:59.735Z,13.60
2019-06-28T07:35:28.700Z,13.33
2019-06-28T07:37:57.653Z,13.03
2019-06-28T07:40:27.049Z,12.87
2019-06-28T07:42:56.110Z,13.10
2019-06-28T07:45:25.092Z,12.37
2019-06-28T07:47:54.076Z,12.90
2019-06-28T07:50:23.748Z,13.80
2019-06-28T07:52:52.739Z,13.90
2019-06-28T07:55:22.181Z,14.50
2019-06-28T07:57:51.151Z,13.27
2019-06-28T08:00:20.619Z,12.90
2019-06-28T08:02:49.595Z,14.07
2019-06-28T08:05:18.593Z,13.60
2019-06-28T08:07:47.654Z,12.90
2019-06-28T08:10:16.784Z,14.30
2019-06-28T08:12:45.748Z,14.30
2019-06-28T08:15:20.086Z,12.77
2019-06-28T08:17:47.023Z,12.97
2019-06-28T08:20:16.287Z,11.57
2019-06-28T08:22:46.268Z,13.53
2019-06-28T08:25:17.428Z,13.20
2019-06-28T08:27:46.400Z,14.10
2019-06-28T08:30:16.776Z,13.97
2019-06-28T08:32:46.382Z,13.40
2019-06-28T08:35:15.355Z,13.90
2019-06-28T08:37:44.332Z,14.57
2019-06-28T08:40:15.301Z,14.33
2019-06-28T08:42:44.609Z,14.53
2019-06-28T08:45:13.993Z,15.47
2019-06-28T08:47:42.940Z,13.90
2019-06-28T08:50:12.296Z,13.97
2019-06-28T08:52:41.307Z,13.43
2019-06-28T08:55:10.444Z,13.60
2019-06-28T09:00:10.693Z,14.33
2019-06-28T09:02:39.661Z,13.13
2019-06-28T09:05:08.746Z,14.27
2019-06-28T09:07:37.805Z,13.77
2019-06-28T09:10:07.423Z,14.43
2019-06-28T09:12:36.695Z,14.47
2019-06-28T09:15:05.964Z,14.40
2019-06-28T09:17:34.936Z,13.63
2019-06-28T09:20:04.444Z,14.80
2019-06-28T09:22:33.497Z,13.70
2019-06-28T09:25:02.801Z,13.97
2019-06-28T09:27:31.768Z,13.80
2019-06-28T09:29:58.732Z,12.63
2019-06-28T09:32:25.696Z,13.60
2019-06-28T09:34:53.833Z,15.27
2019-06-28T09:37:20.896Z,13.70
2019-06-28T09:39:47.995Z,13.60
2019-06-28T09:42:15.065Z,13.10
2019-06-28T09:44:42.127Z,12.50
2019-06-28T09:47:09.211Z,13.60
2019-06-28T09:49:36.277Z,12.40
2019-06-28T09:52:03.537Z,14.10
2019-06-28T09:54:30.679Z,14.23
2019-06-28T09:56:57.724Z,12.70
2019-06-28T09:59:25.133Z,13.23
2019-06-28T10:01:52.194Z,12.83
2019-06-28T10:04:19.262Z,16.47
2019-06-28T10:06:46.404Z,13.30
2019-06-28T10:09:13.473Z,13.40
2019-06-28T10:11:40.773Z,14.27
2019-06-28T10:14:07.920Z,13.97
2019-06-28T10:16:34.983Z,14.53
2019-06-28T10:19:02.048Z,14.03
2019-06-28T10:21:29.116Z,13.13
2019-06-28T10:23:56.176Z,11.90
2019-06-28T10:26:23.381Z,13.20
2019-06-28T10:28:50.444Z,14.67
2019-06-28T10:31:17.531Z,13.97
2019-06-28T10:33:44.598Z,12.80
2019-06-28T10:36:11.657Z,12.83
2019-06-28T10:38:38.820Z,13.47
2019-06-28T10:41:05.996Z,13.67
2019-06-28T10:43:33.072Z,14.00
2019-06-28T10:46:00.144Z,13.70
2019-06-28T10:48:27.207Z,12.97
2019-06-28T10:50:54.284Z,13.33
2019-06-28T10:53:21.341Z,13.77
2019-06-28T10:55:48.414Z,12.93
2019-06-28T10:58:15.464Z,12.47
2019-06-28T11:00:43.624Z,12.40
2019-06-28T11:03:10.905Z,13.03
2019-06-28T11:05:37.982Z,14.13
2019-06-28T11:08:05.158Z,12.20
2019-06-28T11:10:32.320Z,10.83
2019-06-28T11:12:59.386Z,11.83
2019-06-28T11:15:26.500Z,11.80
2019-06-28T11:17:53.608Z,10.87
2019-06-28T11:20:20.912Z,12.30
2019-06-28T11:22:47.977Z,12.23
2019-06-28T11:25:15.027Z,12.47
2019-06-28T11:27:42.088Z,11.60
2019-06-28T11:30:16.185Z,10.17
2019-06-28T11:32:43.390Z,11.97
2019-06-28T11:35:11.412Z,11.13
2019-06-28T11:37:38.466Z,11.10
2019-06-28T11:40:05.827Z,11.17
2019-06-28T11:42:32.908Z,10.80
2019-06-28T11:45:00.132Z,10.77
2019-06-28T11:47:27.204Z,11.33
2019-06-28T11:49:54.365Z,10.60
2019-06-28T11:52:21.425Z,10.13
2019-06-28T11:54:48.487Z,9.93
2019-06-28T11:57:15.559Z,11.47
2019-06-28T11:59:42.608Z,9.60
2019-06-28T12:02:09.756Z,8.87
2019-06-28T12:04:36.823Z,9.70
2019-06-28T12:07:03.889Z,10.13
2019-06-28T12:09:30.963Z,9.43
2019-06-28T12:11:58.036Z,10.63
2019-06-28T12:14:25.184Z,11.53
2019-06-28T12:16:53.041Z,9.83
2019-06-28T12:19:20.338Z,9.13
2019-06-28T12:21:47.596Z,8.47
2019-06-28T12:24:14.645Z,9.37
2019-06-28T12:26:41.711Z,9.13
2019-06-28T12:29:08.783Z,10.00
2019-06-28T12:31:35.861Z,10.97
2019-06-28T12:34:03.114Z,9.33
2019-06-28T12:36:30.184Z,9.67
2019-06-28T12:38:57.243Z,8.73
2019-06-28T12:41:24.499Z,8.07
2019-06-28T12:43:51.565Z,8.07
2019-06-28T12:46:18.621Z,8.57
2019-06-28T12:48:45.695Z,8.77
2019-06-28T12:51:12.756Z,7.90
2019-06-28T12:53:39.809Z,7.63
2019-06-28T12:56:06.976Z,8.87
2019-06-28T12:58:34.040Z,8.10
2019-06-28T13:01:01.115Z,8.00
2019-06-28T13:03:28.175Z,7.87
2019-06-28T13:05:55.353Z,8.77
2019-06-28T13:08:22.437Z,8.60
2019-06-28T13:10:49.672Z,8.20
2019-06-28T13:13:16.746Z,7.50
2019-06-28T13:15:43.813Z,8.60
2019-06-28T13:18:11.584Z,9.77
2019-06-28T13:20:38.760Z,7.80
2019-06-28T13:23:08.645Z,7.17
2019-06-28T13:25:34.969Z,7.53
2019-06-28T13:28:02.162Z,7.70
2019-06-28T13:30:29.425Z,8.30
2019-06-28T13:32:56.790Z,7.97
2019-06-28T13:35:25.758Z,8.37
2019-06-28T13:37:54.719Z,7.27
2019-06-28T13:40:23.915Z,6.97
2019-06-28T13:42:50.976Z,9.20
2019-06-28T13:45:18.235Z,8.13
2019-06-28T13:47:45.295Z,7.60
2019-06-28T13:50:12.655Z,7.00
2019-06-28T13:52:40.063Z,7.50
2019-06-28T13:55:08.164Z,7.00
2019-06-28T13:57:35.491Z,6.27
2019-06-28T14:00:03.372Z,7.63
2019-06-28T14:02:31.772Z,6.67
2019-06-28T14:04:58.851Z,8.00
2019-06-28T14:07:25.925Z,6.60
2019-06-28T14:09:52.987Z,7.47
2019-06-28T14:12:20.055Z,6.30
2019-06-28T14:14:47.114Z,5.50
2019-06-28T14:17:14.171Z,6.60
2019-06-28T14:19:41.251Z,6.53
2019-06-28T14:22:08.431Z,6.17
2019-06-28T14:24:35.499Z,5.90
2019-06-28T14:27:02.592Z,5.47
2019-06-28T14:29:29.672Z,5.67
2019-06-28T14:31:57.011Z,6.03
2019-06-28T14:34:24.091Z,5.50
2019-06-28T14:36:51.139Z,5.57
2019-06-28T14:39:18.208Z,5.10
2019-06-28T14:41:45.375Z,5.60
2019-06-28T14:44:12.449Z,5.40
2019-06-28T14:46:39.548Z,6.10
2019-06-28T14:49:06.704Z,6.47
2019-06-28T14:51:33.857Z,6.73
2019-06-28T14:54:00.923Z,5.93
2019-06-28T14:56:27.980Z,6.00
2019-06-28T14:58:55.043Z,6.60
2019-06-28T15:01:23.104Z,5.50
2019-06-28T15:03:52.335Z,5.40
2019-06-28T15:06:19.224Z,6.70
2019-06-28T15:08:46.290Z,6.67
2019-06-28T15:11:13.356Z,6.20
2019-06-28T15:13:40.432Z,6.00
2019-06-28T15:16:07.592Z,6.10
2019-06-28T15:18:34.656Z,5.17
2019-06-28T15:21:01.732Z,5.43
2019-06-28T15:23:28.810Z,5.60
2019-06-28T15:25:55.991Z,5.70
2019-06-28T15:28:23.245Z,5.77
2019-06-28T15:30:50.316Z,5.40
2019-06-28T15:33:17.404Z,5.03
2019-06-28T15:35:44.467Z,5.30
2019-06-28T15:38:11.515Z,5.30
2019-06-28T15:40:38.791Z,5.27
2019-06-28T15:43:05.903Z,5.87
2019-06-28T15:45:33.618Z,5.60
2019-06-28T15:48:02.129Z,9.10
2019-06-28T15:50:29.199Z,5.37
2019-06-28T15:52:56.319Z,5.60
2019-06-28T15:55:23.452Z,5.77
2019-06-28T15:57:50.743Z,5.40
2019-06-28T16:00:22.100Z,5.13
2019-06-28T16:02:49.171Z,4.60
2019-06-28T16:05:16.448Z,4.90
2019-06-28T16:07:43.488Z,5.37
2019-06-28T16:10:10.785Z,5.07
2019-06-28T16:12:37.842Z,5.10
2019-06-28T16:15:05.223Z,4.90
2019-06-28T16:17:32.538Z,4.60
2019-06-28T16:19:59.609Z,4.17
2019-06-28T16:22:26.680Z,4.80
2019-06-28T16:24:53.759Z,5.27
2019-06-28T16:27:20.832Z,5.00
2019-06-28T16:29:47.898Z,4.70
2019-06-28T16:32:15.192Z,4.60
2019-06-28T16:34:42.300Z,4.17
2019-06-28T16:37:09.360Z,4.83
2019-06-28T16:39:36.539Z,4.27
2019-06-28T16:42:03.752Z,4.13
2019-06-28T16:44:30.862Z,4.60
2019-06-28T16:46:57.984Z,4.27
2019-06-28T16:49:25.427Z,4.20
2019-06-28T16:51:52.786Z,4.17
2019-06-28T16:54:19.904Z,4.47
2019-06-28T16:56:47.013Z,4.10
2019-06-28T16:59:14.113Z,4.20
2019-06-28T17:01:41.238Z,4.20
2019-06-28T17:04:08.324Z,4.27
2019-06-28T17:06:35.433Z,4.10
2019-06-28T17:09:03.420Z,4.50
2019-06-28T17:11:31.487Z,4.10
2019-06-28T17:13:58.572Z,4.47
2019-06-28T17:16:25.657Z,4.20
2019-06-28T17:18:52.736Z,4.40
2019-06-28T17:21:19.825Z,4.30
2019-06-28T17:23:47.170Z,4.60
2019-06-28T17:26:14.535Z,4.13
2019-06-28T17:28:41.601Z,4.23
2019-06-28T17:31:08.680Z,4.23
2019-06-28T17:33:35.761Z,4.30
2019-06-28T17:36:03.048Z,3.97
2019-06-28T17:38:30.144Z,4.23
2019-06-28T17:40:57.208Z,4.37
2019-06-28T17:43:24.548Z,4.50
2019-06-28T17:45:51.645Z,4.30
2019-06-28T17:48:18.702Z,4.40
2019-06-28T17:50:45.787Z,4.07
2019-06-28T17:53:14.229Z,3.97
2019-06-28T17:55:41.314Z,4.37
2019-06-28T17:58:08.368Z,3.87
2019-06-28T18:00:35.528Z,4.33
2019-06-28T18:03:02.811Z,4.10
2019-06-28T18:05:29.977Z,4.10
2019-06-28T18:07:57.047Z,4.10
2019-06-28T18:10:27.603Z,4.40
2019-06-28T18:12:53.281Z,4.53
2019-06-28T18:15:20.535Z,4.43
2019-06-28T18:17:47.607Z,4.00
2019-06-28T18:20:14.876Z,4.13
2019-06-28T18:22:43.071Z,4.10
2019-06-28T18:25:10.719Z,4.30
2019-06-28T18:27:37.789Z,4.43
2019-06-28T18:30:05.460Z,4.00
2019-06-28T18:32:36.748Z,4.03
2019-06-28T18:35:04.031Z,4.20
2019-06-28T18:37:31.339Z,3.97
2019-06-28T18:39:58.415Z,4.13
2019-06-28T18:42:29.049Z,4.00
2019-06-28T18:44:54.460Z,3.90
2019-06-28T18:47:21.540Z,4.00
2019-06-28T18:49:48.591Z,3.90
2019-06-28T18:52:15.891Z,4.00
2019-06-28T18:54:42.943Z,4.00
2019-06-28T18:57:10.014Z,4.27
2019-06-28T18:59:37.064Z,4.10
2019-06-28T19:02:04.333Z,3.80
2019-06-28T19:04:31.417Z,4.00
2019-06-28T19:06:58.583Z,3.40
2019-06-28T19:09:25.656Z,3.77
2019-06-28T19:11:52.707Z,3.63
2019-06-28T19:14:19.975Z,3.60
2019-06-28T19:16:47.040Z,4.10
2019-06-28T19:19:14.100Z,4.50
2019-06-28T19:21:41.160Z,4.23
2019-06-28T19:24:08.219Z,3.87
2019-06-28T19:26:35.379Z,4.13
2019-06-28T19:29:02.637Z,4.00
2019-06-28T19:31:29.703Z,4.43
2019-06-28T19:33:56.767Z,4.50
2019-06-28T19:36:23.970Z,4.10
2019-06-28T19:38:51.021Z,4.53
2019-06-28T19:41:18.431Z,4.07
2019-06-28T19:43:45.503Z,4.57
2019-06-28T19:46:12.580Z,4.60
2019-06-28T19:48:39.647Z,4.50
2019-06-28T19:51:06.697Z,4.27
2019-06-28T19:53:33.765Z,4.50
2019-06-28T19:56:00.823Z,4.60
2019-06-28T19:58:27.880Z,4.70
2019-06-28T20:00:54.966Z,4.20
2019-06-28T20:03:22.135Z,4.90
2019-06-28T20:05:49.202Z,4.33
2019-06-28T20:08:16.252Z,4.23
2019-06-28T20:10:43.546Z,4.57
2019-06-28T20:13:10.624Z,4.23
2019-06-28T20:15:37.668Z,4.60
2019-06-28T20:18:04.845Z,4.53
2019-06-28T20:20:31.955Z,5.23
2019-06-28T20:22:59.171Z,4.70
2019-06-28T20:25:26.247Z,4.60
2019-06-28T20:27:53.324Z,4.70
2019-06-28T20:30:42.767Z,4.17
2019-06-28T20:32:57.526Z,5.00
2019-06-28T20:35:24.573Z,4.63
2019-06-28T20:37:51.644Z,4.87
2019-06-28T20:40:18.698Z,4.70
2019-06-28T20:42:45.747Z,4.87
2019-06-28T20:45:13.211Z,5.00
2019-06-28T20:47:40.276Z,5.60
2019-06-28T20:50:07.652Z,5.10
2019-06-28T20:52:34.703Z,4.97
2019-06-28T20:55:01.860Z,5.05
2019-06-28T20:57:28.911Z,4.80
2019-06-28T20:59:56.242Z,5.20
2019-06-28T21:02:24.263Z,5.20
2019-06-28T21:04:51.348Z,5.10
2019-06-28T21:07:18.597Z,5.07
2019-06-28T21:09:46.789Z,5.53
2019-06-28T21:12:14.083Z,5.60
2019-06-28T21:14:41.256Z,5.37
2019-06-28T21:17:08.337Z,5.83
2019-06-28T21:19:35.384Z,6.13
2019-06-28T21:22:02.541Z,5.80
2019-06-28T21:24:29.613Z,5.67
2019-06-28T21:26:56.685Z,5.57
2019-06-28T21:29:23.738Z,6.37
2019-06-28T21:31:50.771Z,6.23
2019-06-28T21:34:17.823Z,6.00
2019-06-28T21:36:44.893Z,6.13
2019-06-28T21:39:11.969Z,5.47
2019-06-28T21:41:39.035Z,6.10
2019-06-28T21:44:06.104Z,6.57
2019-06-28T21:46:33.430Z,6.33
2019-06-28T21:49:00.717Z,6.30
2019-06-28T21:51:27.763Z,6.13
2019-06-28T21:53:55.077Z,5.77
2019-06-28T21:56:22.351Z,6.33
2019-06-28T21:58:49.416Z,6.20
2019-06-28T22:01:16.694Z,6.60
2019-06-28T22:03:43.857Z,6.30
2019-06-28T22:06:10.928Z,6.57
2019-06-28T22:08:38.081Z,6.30
2019-06-28T22:11:05.368Z,6.80
2019-06-28T22:13:32.448Z,7.03
2019-06-28T22:15:59.504Z,6.70
2019-06-28T22:18:26.571Z,7.17
2019-06-28T22:20:53.735Z,6.80
2019-06-28T22:23:20.808Z,6.63
2019-06-28T22:25:47.877Z,6.87
2019-06-28T22:28:14.935Z,7.67
2019-06-28T22:30:42.075Z,6.53
2019-06-28T22:33:09.136Z,6.53
2019-06-28T22:35:36.189Z,6.83
2019-06-28T22:38:03.244Z,6.87
2019-06-28T22:40:30.317Z,6.40
2019-06-28T22:42:57.467Z,6.87
2019-06-28T22:45:24.763Z,7.27
2019-06-28T22:47:51.823Z,6.80
2019-06-28T22:50:19.331Z,7.03
2019-06-28T22:52:46.393Z,7.10
2019-06-28T22:55:13.687Z,7.27
2019-06-28T22:57:40.721Z,7.20
2019-06-28T23:00:08.387Z,7.30
2019-06-28T23:02:36.544Z,7.70
2019-06-28T23:05:03.843Z,7.53
2019-06-28T23:07:30.903Z,7.40
2019-06-28T23:09:57.968Z,7.60
2019-06-28T23:12:25.251Z,7.57
2019-06-28T23:14:52.312Z,7.60
2019-06-28T23:17:19.379Z,6.83
2019-06-28T23:19:46.419Z,7.73
2019-06-28T23:22:13.479Z,7.17
2019-06-28T23:24:40.527Z,7.60
2019-06-28T23:27:07.600Z,7.93
2019-06-28T23:29:34.659Z,7.57
2019-06-28T23:32:01.712Z,7.63
2019-06-28T23:34:29.000Z,7.10
2019-06-28T23:36:56.064Z,7.37
2019-06-28T23:39:23.129Z,7.20
2019-06-28T23:41:50.192Z,7.40
2019-06-28T23:44:17.274Z,7.13
2019-06-28T23:46:46.017Z,6.70
2019-06-28T23:49:13.288Z,7.83
2019-06-28T23:51:40.345Z,7.43
2019-06-28T23:54:07.428Z,7.70
2019-06-28T23:56:34.603Z,7.13
2019-06-28T23:59:01.767Z,7.70
